Terminal Aerodrome Forecast
Issued by NWS Cleveland, OH

Home | Current Version | Previous Version | Graphics & Text | Print | Product List | Glossary On
Versions: 1 2 3 4 5 6 7 8 9 10 11 12 13 14 15 16 17 18 19 20 21 22 23 24 25 26 27 28
000
FTUS41 KCLE 262300
TAFCLE
TAF
KCLE 262336Z 2700/2806 35006KT P6SM SCT020 BKN100
      TEMPO 2700/2701 6SM -SHSN
     FM270600 33003KT P6SM FEW020
     FM271400 27008KT P6SM SKC=

USA.gov is the U.S. government's official web portal to all federal, state and local government web resources and services.